sensor_id;sensor_type;location;lat;lon;timestamp;P1;durP1;ratioP1;P2;durP2;ratioP2
1837;SDS011;918;50.796;6.772;2023-02-05T00:00:23;14.73;;;11.87;;
1837;SDS011;918;50.796;6.772;2023-02-05T00:02:49;15.23;;;11.50;;
1837;SDS011;918;50.796;6.772;2023-02-05T00:05:14;18.53;;;12.33;;
1837;SDS011;918;50.796;6.772;2023-02-05T00:07:39;14.30;;;11.80;;
1837;SDS011;918;50.796;6.772;2023-02-05T00:10:05;14.03;;;12.60;;
1837;SDS011;918;50.796;6.772;2023-02-05T00:12:30;22.50;;;13.00;;
1837;SDS011;918;50.796;6.772;2023-02-05T00:14:56;12.63;;;10.37;;
1837;SDS011;918;50.796;6.772;2023-02-05T00:17:21;17.47;;;12.10;;
1837;SDS011;918;50.796;6.772;2023-02-05T00:19:46;16.77;;;11.87;;
1837;SDS011;918;50.796;6.772;2023-02-05T00:22:12;18.90;;;11.83;;
1837;SDS011;918;50.796;6.772;2023-02-05T00:24:37;15.40;;;12.30;;
1837;SDS011;918;50.796;6.772;2023-02-05T00:27:02;14.67;;;11.53;;
1837;SDS011;918;50.796;6.772;2023-02-05T00:29:27;18.93;;;12.53;;
1837;SDS011;918;50.796;6.772;2023-02-05T00:31:53;21.67;;;12.30;;
1837;SDS011;918;50.796;6.772;2023-02-05T00:34:18;15.73;;;11.87;;
1837;SDS011;918;50.796;6.772;2023-02-05T00:36:43;18.33;;;12.60;;
1837;SDS011;918;50.796;6.772;2023-02-05T00:39:08;15.20;;;11.90;;
1837;SDS011;918;50.796;6.772;2023-02-05T00:41:35;16.37;;;11.77;;
1837;SDS011;918;50.796;6.772;2023-02-05T00:44:01;18.20;;;11.93;;
1837;SDS011;918;50.796;6.772;2023-02-05T00:46:27;17.70;;;12.67;;
1837;SDS011;918;50.796;6.772;2023-02-05T00:48:52;14.53;;;11.00;;
1837;SDS011;918;50.796;6.772;2023-02-05T00:51:17;20.00;;;13.33;;
1837;SDS011;918;50.796;6.772;2023-02-05T00:53:42;17.83;;;13.13;;
1837;SDS011;918;50.796;6.772;2023-02-05T00:56:08;17.00;;;13.60;;
1837;SDS011;918;50.796;6.772;2023-02-05T00:58:33;20.10;;;13.53;;
1837;SDS011;918;50.796;6.772;2023-02-05T01:00:58;14.90;;;11.70;;
1837;SDS011;918;50.796;6.772;2023-02-05T01:03:23;18.33;;;12.83;;
1837;SDS011;918;50.796;6.772;2023-02-05T01:05:49;20.70;;;13.13;;
1837;SDS011;918;50.796;6.772;2023-02-05T01:08:14;17.70;;;12.37;;
1837;SDS011;918;50.796;6.772;2023-02-05T01:10:46;15.07;;;13.47;;
1837;SDS011;918;50.796;6.772;2023-02-05T01:13:12;14.30;;;12.70;;
1837;SDS011;918;50.796;6.772;2023-02-05T01:15:38;16.63;;;12.90;;
1837;SDS011;918;50.796;6.772;2023-02-05T01:18:03;16.43;;;13.57;;
1837;SDS011;918;50.796;6.772;2023-02-05T01:20:28;17.70;;;13.63;;
1837;SDS011;918;50.796;6.772;2023-02-05T01:22:54;20.60;;;15.40;;
1837;SDS011;918;50.796;6.772;2023-02-05T01:25:19;21.07;;;13.87;;
1837;SDS011;918;50.796;6.772;2023-02-05T01:27:45;15.93;;;12.90;;
1837;SDS011;918;50.796;6.772;2023-02-05T01:30:10;16.33;;;13.53;;
1837;SDS011;918;50.796;6.772;2023-02-05T01:32:36;17.50;;;12.43;;
1837;SDS011;918;50.796;6.772;2023-02-05T01:35:02;17.87;;;13.43;;
1837;SDS011;918;50.796;6.772;2023-02-05T01:37:28;23.77;;;13.67;;
1837;SDS011;918;50.796;6.772;2023-02-05T01:39:53;20.30;;;14.90;;
1837;SDS011;918;50.796;6.772;2023-02-05T01:42:22;18.97;;;14.47;;
1837;SDS011;918;50.796;6.772;2023-02-05T01:47:46;18.30;;;13.70;;
1837;SDS011;918;50.796;6.772;2023-02-05T01:50:14;18.00;;;15.00;;
1837;SDS011;918;50.796;6.772;2023-02-05T01:52:40;17.50;;;14.10;;
1837;SDS011;918;50.796;6.772;2023-02-05T01:55:06;16.90;;;14.10;;
1837;SDS011;918;50.796;6.772;2023-02-05T01:57:32;17.00;;;14.27;;
1837;SDS011;918;50.796;6.772;2023-02-05T01:59:57;20.60;;;14.50;;
1837;SDS011;918;50.796;6.772;2023-02-05T02:02:22;20.23;;;13.83;;
1837;SDS011;918;50.796;6.772;2023-02-05T02:04:53;17.00;;;12.73;;
1837;SDS011;918;50.796;6.772;2023-02-05T02:07:20;16.43;;;13.00;;
1837;SDS011;918;50.796;6.772;2023-02-05T02:09:47;19.07;;;12.50;;
1837;SDS011;918;50.796;6.772;2023-02-05T02:12:14;18.03;;;13.97;;
1837;SDS011;918;50.796;6.772;2023-02-05T02:14:46;20.17;;;15.07;;
1837;SDS011;918;50.796;6.772;2023-02-05T02:17:13;15.57;;;13.97;;
1837;SDS011;918;50.796;6.772;2023-02-05T02:19:44;17.20;;;13.70;;
1837;SDS011;918;50.796;6.772;2023-02-05T02:25:13;16.90;;;14.23;;
1837;SDS011;918;50.796;6.772;2023-02-05T02:27:52;16.17;;;14.10;;
1837;SDS011;918;50.796;6.772;2023-02-05T02:30:32;18.97;;;13.60;;
1837;SDS011;918;50.796;6.772;2023-02-05T02:33:10;21.77;;;14.50;;
1837;SDS011;918;50.796;6.772;2023-02-05T02:38:31;22.13;;;14.20;;
1837;SDS011;918;50.796;6.772;2023-02-05T02:41:00;19.90;;;13.30;;
1837;SDS011;918;50.796;6.772;2023-02-05T02:43:49;20.67;;;13.70;;
1837;SDS011;918;50.796;6.772;2023-02-05T02:46:20;16.50;;;12.93;;
1837;SDS011;918;50.796;6.772;2023-02-05T02:48:47;20.10;;;12.67;;
1837;SDS011;918;50.796;6.772;2023-02-05T02:51:14;16.90;;;11.70;;
1837;SDS011;918;50.796;6.772;2023-02-05T02:53:41;15.87;;;12.80;;
1837;SDS011;918;50.796;6.772;2023-02-05T02:56:08;14.90;;;12.33;;
1837;SDS011;918;50.796;6.772;2023-02-05T02:58:36;18.53;;;12.67;;
1837;SDS011;918;50.796;6.772;2023-02-05T03:01:05;17.90;;;12.40;;
1837;SDS011;918;50.796;6.772;2023-02-05T03:03:31;15.53;;;11.33;;
1837;SDS011;918;50.796;6.772;2023-02-05T03:06:01;17.47;;;11.67;;
1837;SDS011;918;50.796;6.772;2023-02-05T03:08:29;14.00;;;12.50;;
1837;SDS011;918;50.796;6.772;2023-02-05T03:11:00;14.47;;;12.03;;
1837;SDS011;918;50.796;6.772;2023-02-05T03:13:27;19.43;;;12.97;;
1837;SDS011;918;50.796;6.772;2023-02-05T03:15:53;17.23;;;12.30;;
1837;SDS011;918;50.796;6.772;2023-02-05T03:18:18;15.83;;;11.90;;
1837;SDS011;918;50.796;6.772;2023-02-05T03:20:45;16.37;;;12.53;;
1837;SDS011;918;50.796;6.772;2023-02-05T03:23:15;18.10;;;13.10;;
1837;SDS011;918;50.796;6.772;2023-02-05T03:25:42;17.10;;;12.97;;
1837;SDS011;918;50.796;6.772;2023-02-05T03:28:08;18.33;;;13.63;;
1837;SDS011;918;50.796;6.772;2023-02-05T03:41:17;18.13;;;12.67;;
1837;SDS011;918;50.796;6.772;2023-02-05T03:44:15;19.27;;;13.43;;
1837;SDS011;918;50.796;6.772;2023-02-05T03:46:47;16.83;;;11.63;;
1837;SDS011;918;50.796;6.772;2023-02-05T03:52:17;22.70;;;14.37;;
1837;SDS011;918;50.796;6.772;2023-02-05T03:54:50;21.17;;;14.93;;
1837;SDS011;918;50.796;6.772;2023-02-05T03:57:37;21.23;;;16.47;;
1837;SDS011;918;50.796;6.772;2023-02-05T04:00:07;20.07;;;13.03;;
1837;SDS011;918;50.796;6.772;2023-02-05T04:02:33;17.63;;;13.20;;
1837;SDS011;918;50.796;6.772;2023-02-05T04:04:58;23.53;;;14.83;;
1837;SDS011;918;50.796;6.772;2023-02-05T04:07:24;19.60;;;15.43;;
1837;SDS011;918;50.796;6.772;2023-02-05T04:09:49;19.00;;;13.90;;
1837;SDS011;918;50.796;6.772;2023-02-05T04:12:14;18.87;;;13.27;;
1837;SDS011;918;50.796;6.772;2023-02-05T04:14:40;20.63;;;13.33;;
1837;SDS011;918;50.796;6.772;2023-02-05T04:17:05;20.23;;;14.20;;
1837;SDS011;918;50.796;6.772;2023-02-05T04:19:31;20.13;;;14.33;;
1837;SDS011;918;50.796;6.772;2023-02-05T04:21:56;18.00;;;13.07;;
1837;SDS011;918;50.796;6.772;2023-02-05T04:24:22;18.63;;;12.77;;
1837;SDS011;918;50.796;6.772;2023-02-05T04:26:47;17.17;;;14.20;;
1837;SDS011;918;50.796;6.772;2023-02-05T04:29:12;21.13;;;12.20;;
1837;SDS011;918;50.796;6.772;2023-02-05T04:31:38;17.30;;;13.57;;
1837;SDS011;918;50.796;6.772;2023-02-05T04:34:03;20.27;;;13.07;;
1837;SDS011;918;50.796;6.772;2023-02-05T04:36:28;18.03;;;13.30;;
1837;SDS011;918;50.796;6.772;2023-02-05T04:38:53;21.43;;;13.97;;
1837;SDS011;918;50.796;6.772;2023-02-05T04:41:18;19.93;;;15.77;;
1837;SDS011;918;50.796;6.772;2023-02-05T04:43:44;18.60;;;14.07;;
1837;SDS011;918;50.796;6.772;2023-02-05T04:46:09;21.27;;;14.60;;
1837;SDS011;918;50.796;6.772;2023-02-05T04:48:35;21.07;;;14.57;;
1837;SDS011;918;50.796;6.772;2023-02-05T04:51:07;20.13;;;13.73;;
1837;SDS011;918;50.796;6.772;2023-02-05T04:53:33;20.60;;;15.37;;
1837;SDS011;918;50.796;6.772;2023-02-05T04:58:30;21.33;;;15.10;;
1837;SDS011;918;50.796;6.772;2023-02-05T05:00:55;24.23;;;15.63;;
1837;SDS011;918;50.796;6.772;2023-02-05T05:03:21;20.20;;;16.07;;
1837;SDS011;918;50.796;6.772;2023-02-05T05:05:46;27.63;;;18.70;;
1837;SDS011;918;50.796;6.772;2023-02-05T05:08:11;28.53;;;18.17;;
1837;SDS011;918;50.796;6.772;2023-02-05T05:10:37;28.73;;;18.60;;
1837;SDS011;918;50.796;6.772;2023-02-05T05:13:02;30.20;;;20.53;;
1837;SDS011;918;50.796;6.772;2023-02-05T05:15:27;29.60;;;19.83;;
1837;SDS011;918;50.796;6.772;2023-02-05T05:17:53;30.13;;;19.93;;
1837;SDS011;918;50.796;6.772;2023-02-05T05:20:18;27.30;;;18.30;;
1837;SDS011;918;50.796;6.772;2023-02-05T05:22:43;28.67;;;19.33;;
1837;SDS011;918;50.796;6.772;2023-02-05T05:25:08;26.90;;;18.63;;
1837;SDS011;918;50.796;6.772;2023-02-05T05:27:34;24.30;;;17.63;;
1837;SDS011;918;50.796;6.772;2023-02-05T05:29:59;25.47;;;17.77;;
1837;SDS011;918;50.796;6.772;2023-02-05T05:32:24;29.17;;;18.03;;
1837;SDS011;918;50.796;6.772;2023-02-05T05:34:49;24.40;;;17.87;;
1837;SDS011;918;50.796;6.772;2023-02-05T05:37:14;23.57;;;17.67;;
1837;SDS011;918;50.796;6.772;2023-02-05T05:39:40;27.00;;;19.40;;
1837;SDS011;918;50.796;6.772;2023-02-05T05:42:24;27.37;;;18.47;;
1837;SDS011;918;50.796;6.772;2023-02-05T05:45:09;23.67;;;16.20;;
1837;SDS011;918;50.796;6.772;2023-02-05T05:47:34;20.67;;;15.77;;
1837;SDS011;918;50.796;6.772;2023-02-05T05:49:59;23.90;;;15.17;;
1837;SDS011;918;50.796;6.772;2023-02-05T05:52:24;24.63;;;15.77;;
1837;SDS011;918;50.796;6.772;2023-02-05T05:54:50;22.43;;;15.73;;
1837;SDS011;918;50.796;6.772;2023-02-05T05:57:15;20.50;;;16.07;;
1837;SDS011;918;50.796;6.772;2023-02-05T05:59:40;21.67;;;14.97;;
1837;SDS011;918;50.796;6.772;2023-02-05T06:02:05;21.23;;;16.83;;
1837;SDS011;918;50.796;6.772;2023-02-05T06:04:30;22.73;;;17.57;;
1837;SDS011;918;50.796;6.772;2023-02-05T06:06:56;20.20;;;15.30;;
1837;SDS011;918;50.796;6.772;2023-02-05T06:09:22;21.07;;;15.67;;
1837;SDS011;918;50.796;6.772;2023-02-05T06:11:47;20.63;;;15.20;;
1837;SDS011;918;50.796;6.772;2023-02-05T06:14:13;20.93;;;15.60;;
1837;SDS011;918;50.796;6.772;2023-02-05T06:16:38;20.37;;;16.10;;
1837;SDS011;918;50.796;6.772;2023-02-05T06:19:04;21.00;;;14.87;;
1837;SDS011;918;50.796;6.772;2023-02-05T06:21:29;22.37;;;16.67;;
1837;SDS011;918;50.796;6.772;2023-02-05T06:23:55;20.47;;;15.63;;
1837;SDS011;918;50.796;6.772;2023-02-05T06:26:20;17.03;;;15.20;;
1837;SDS011;918;50.796;6.772;2023-02-05T06:28:45;22.30;;;16.80;;
1837;SDS011;918;50.796;6.772;2023-02-05T06:31:11;24.77;;;18.77;;
1837;SDS011;918;50.796;6.772;2023-02-05T06:33:36;25.47;;;19.17;;
1837;SDS011;918;50.796;6.772;2023-02-05T06:36:01;28.47;;;19.30;;
1837;SDS011;918;50.796;6.772;2023-02-05T06:38:26;29.70;;;20.17;;
1837;SDS011;918;50.796;6.772;2023-02-05T06:40:52;32.00;;;22.60;;
1837;SDS011;918;50.796;6.772;2023-02-05T06:43:17;30.50;;;21.40;;
1837;SDS011;918;50.796;6.772;2023-02-05T06:45:42;37.10;;;23.97;;
1837;SDS011;918;50.796;6.772;2023-02-05T06:48:07;24.60;;;20.33;;
1837;SDS011;918;50.796;6.772;2023-02-05T06:50:32;30.37;;;22.27;;
1837;SDS011;918;50.796;6.772;2023-02-05T06:52:58;34.97;;;22.03;;
1837;SDS011;918;50.796;6.772;2023-02-05T06:55:23;28.07;;;22.00;;
1837;SDS011;918;50.796;6.772;2023-02-05T06:57:48;31.57;;;23.33;;
1837;SDS011;918;50.796;6.772;2023-02-05T07:00:14;26.63;;;21.73;;
1837;SDS011;918;50.796;6.772;2023-02-05T07:02:39;27.03;;;20.60;;
1837;SDS011;918;50.796;6.772;2023-02-05T07:05:05;26.50;;;20.13;;
1837;SDS011;918;50.796;6.772;2023-02-05T07:07:30;27.17;;;21.50;;
1837;SDS011;918;50.796;6.772;2023-02-05T07:09:57;32.20;;;22.20;;
1837;SDS011;918;50.796;6.772;2023-02-05T07:12:22;26.73;;;20.90;;
1837;SDS011;918;50.796;6.772;2023-02-05T07:14:47;28.67;;;21.70;;
1837;SDS011;918;50.796;6.772;2023-02-05T07:17:12;28.90;;;21.13;;
1837;SDS011;918;50.796;6.772;2023-02-05T07:19:38;26.77;;;20.50;;
1837;SDS011;918;50.796;6.772;2023-02-05T07:22:03;32.90;;;24.17;;
1837;SDS011;918;50.796;6.772;2023-02-05T07:24:29;28.03;;;22.43;;
1837;SDS011;918;50.796;6.772;2023-02-05T07:26:54;27.60;;;23.57;;
1837;SDS011;918;50.796;6.772;2023-02-05T07:29:20;35.80;;;26.70;;
1837;SDS011;918;50.796;6.772;2023-02-05T07:31:45;36.17;;;27.47;;
1837;SDS011;918;50.796;6.772;2023-02-05T07:34:13;35.90;;;28.77;;
1837;SDS011;918;50.796;6.772;2023-02-05T07:36:38;33.37;;;28.00;;
1837;SDS011;918;50.796;6.772;2023-02-05T07:39:03;35.30;;;28.20;;
1837;SDS011;918;50.796;6.772;2023-02-05T07:41:29;34.60;;;26.77;;
1837;SDS011;918;50.796;6.772;2023-02-05T07:43:54;32.63;;;25.23;;
1837;SDS011;918;50.796;6.772;2023-02-05T07:46:20;30.53;;;25.87;;
1837;SDS011;918;50.796;6.772;2023-02-05T07:48:45;31.87;;;25.50;;
1837;SDS011;918;50.796;6.772;2023-02-05T07:51:21;29.20;;;24.07;;
1837;SDS011;918;50.796;6.772;2023-02-05T07:53:47;34.57;;;25.43;;
1837;SDS011;918;50.796;6.772;2023-02-05T07:56:13;30.13;;;24.47;;
1837;SDS011;918;50.796;6.772;2023-02-05T07:58:39;28.97;;;23.93;;
1837;SDS011;918;50.796;6.772;2023-02-05T08:01:05;29.38;;;24.40;;
1837;SDS011;918;50.796;6.772;2023-02-05T08:03:30;32.07;;;25.27;;
1837;SDS011;918;50.796;6.772;2023-02-05T08:05:55;26.00;;;22.60;;
1837;SDS011;918;50.796;6.772;2023-02-05T08:08:21;28.83;;;23.07;;
1837;SDS011;918;50.796;6.772;2023-02-05T08:10:47;29.00;;;22.93;;
1837;SDS011;918;50.796;6.772;2023-02-05T08:13:12;26.13;;;23.17;;
1837;SDS011;918;50.796;6.772;2023-02-05T08:15:38;29.93;;;24.77;;
1837;SDS011;918;50.796;6.772;2023-02-05T08:18:03;26.93;;;23.10;;
1837;SDS011;918;50.796;6.772;2023-02-05T08:20:29;30.00;;;24.17;;
1837;SDS011;918;50.796;6.772;2023-02-05T08:22:55;29.10;;;23.23;;
1837;SDS011;918;50.796;6.772;2023-02-05T08:25:20;25.93;;;22.50;;
1837;SDS011;918;50.796;6.772;2023-02-05T08:27:46;27.70;;;23.70;;
1837;SDS011;918;50.796;6.772;2023-02-05T08:30:12;26.87;;;24.00;;
1837;SDS011;918;50.796;6.772;2023-02-05T08:32:39;24.83;;;21.27;;
1837;SDS011;918;50.796;6.772;2023-02-05T08:35:04;26.33;;;22.13;;
1837;SDS011;918;50.796;6.772;2023-02-05T08:37:30;25.50;;;22.70;;
1837;SDS011;918;50.796;6.772;2023-02-05T08:39:55;24.40;;;21.90;;
1837;SDS011;918;50.796;6.772;2023-02-05T08:42:20;26.70;;;23.03;;
1837;SDS011;918;50.796;6.772;2023-02-05T08:44:46;23.80;;;21.50;;
1837;SDS011;918;50.796;6.772;2023-02-05T08:47:12;23.43;;;20.90;;
1837;SDS011;918;50.796;6.772;2023-02-05T08:49:37;22.23;;;19.93;;
1837;SDS011;918;50.796;6.772;2023-02-05T08:52:03;22.70;;;19.87;;
1837;SDS011;918;50.796;6.772;2023-02-05T08:54:28;20.23;;;18.13;;
1837;SDS011;918;50.796;6.772;2023-02-05T08:56:53;18.83;;;16.93;;
1837;SDS011;918;50.796;6.772;2023-02-05T08:59:19;15.50;;;13.80;;
1837;SDS011;918;50.796;6.772;2023-02-05T09:01:44;14.90;;;13.40;;
1837;SDS011;918;50.796;6.772;2023-02-05T09:04:14;12.10;;;10.67;;
1837;SDS011;918;50.796;6.772;2023-02-05T09:06:40;10.50;;;9.60;;
1837;SDS011;918;50.796;6.772;2023-02-05T09:09:06;8.50;;;7.70;;
1837;SDS011;918;50.796;6.772;2023-02-05T09:11:31;6.80;;;5.70;;
1837;SDS011;918;50.796;6.772;2023-02-05T09:13:57;4.30;;;3.50;;
1837;SDS011;918;50.796;6.772;2023-02-05T09:16:22;3.93;;;3.53;;
1837;SDS011;918;50.796;6.772;2023-02-05T09:18:48;3.60;;;3.30;;
1837;SDS011;918;50.796;6.772;2023-02-05T09:21:14;3.70;;;3.40;;
1837;SDS011;918;50.796;6.772;2023-02-05T09:23:39;3.40;;;2.87;;
1837;SDS011;918;50.796;6.772;2023-02-05T09:26:05;3.20;;;2.90;;
1837;SDS011;918;50.796;6.772;2023-02-05T09:28:31;5.13;;;3.27;;
1837;SDS011;918;50.796;6.772;2023-02-05T09:30:56;2.40;;;2.20;;
1837;SDS011;918;50.796;6.772;2023-02-05T09:33:21;4.53;;;3.30;;
1837;SDS011;918;50.796;6.772;2023-02-05T09:35:46;2.83;;;2.63;;
1837;SDS011;918;50.796;6.772;2023-02-05T09:38:12;3.10;;;2.27;;
1837;SDS011;918;50.796;6.772;2023-02-05T09:46:13;3.87;;;2.40;;
1837;SDS011;918;50.796;6.772;2023-02-05T09:48:53;3.53;;;2.23;;
1837;SDS011;918;50.796;6.772;2023-02-05T09:51:42;2.90;;;2.57;;
1837;SDS011;918;50.796;6.772;2023-02-05T09:54:20;5.47;;;2.23;;
1837;SDS011;918;50.796;6.772;2023-02-05T09:56:48;4.33;;;1.77;;
1837;SDS011;918;50.796;6.772;2023-02-05T09:59:15;1.90;;;1.30;;
1837;SDS011;918;50.796;6.772;2023-02-05T10:01:59;1.80;;;1.70;;
1837;SDS011;918;50.796;6.772;2023-02-05T10:04:26;1.47;;;1.27;;
1837;SDS011;918;50.796;6.772;2023-02-05T10:26:18;2.03;;;1.40;;
1837;SDS011;918;50.796;6.772;2023-02-05T10:28:51;2.77;;;1.60;;
1837;SDS011;918;50.796;6.772;2023-02-05T10:31:39;3.60;;;1.70;;
1837;SDS011;918;50.796;6.772;2023-02-05T10:37:00;4.70;;;1.90;;
1837;SDS011;918;50.796;6.772;2023-02-05T10:39:28;3.37;;;1.40;;
1837;SDS011;918;50.796;6.772;2023-02-05T10:41:58;3.30;;;2.27;;
1837;SDS011;918;50.796;6.772;2023-02-05T10:44:33;4.40;;;1.90;;
1837;SDS011;918;50.796;6.772;2023-02-05T10:47:04;3.83;;;1.97;;
1837;SDS011;918;50.796;6.772;2023-02-05T10:49:43;3.27;;;1.40;;
1837;SDS011;918;50.796;6.772;2023-02-05T10:52:10;3.57;;;1.30;;
1837;SDS011;918;50.796;6.772;2023-02-05T10:54:36;3.63;;;1.83;;
1837;SDS011;918;50.796;6.772;2023-02-05T10:57:02;7.37;;;2.10;;
1837;SDS011;918;50.796;6.772;2023-02-05T10:59:28;1.77;;;1.43;;
1837;SDS011;918;50.796;6.772;2023-02-05T11:01:56;2.97;;;1.87;;
1837;SDS011;918;50.796;6.772;2023-02-05T11:07:00;7.57;;;1.67;;
1837;SDS011;918;50.796;6.772;2023-02-05T11:09:30;6.73;;;2.20;;
1837;SDS011;918;50.796;6.772;2023-02-05T11:11:58;4.90;;;1.83;;
1837;SDS011;918;50.796;6.772;2023-02-05T11:14:38;3.83;;;2.60;;
1837;SDS011;918;50.796;6.772;2023-02-05T11:17:07;2.60;;;1.93;;
1837;SDS011;918;50.796;6.772;2023-02-05T11:19:49;9.33;;;2.70;;
1837;SDS011;918;50.796;6.772;2023-02-05T11:22:23;4.30;;;1.43;;
1837;SDS011;918;50.796;6.772;2023-02-05T11:28:03;6.23;;;1.70;;
1837;SDS011;918;50.796;6.772;2023-02-05T11:30:33;7.03;;;2.30;;
1837;SDS011;918;50.796;6.772;2023-02-05T11:35:49;5.93;;;1.37;;
1837;SDS011;918;50.796;6.772;2023-02-05T11:38:20;5.90;;;2.20;;
1837;SDS011;918;50.796;6.772;2023-02-05T11:40:58;7.10;;;1.90;;
1837;SDS011;918;50.796;6.772;2023-02-05T11:45:57;6.90;;;2.03;;
1837;SDS011;918;50.796;6.772;2023-02-05T11:50:55;5.50;;;2.50;;
1837;SDS011;918;50.796;6.772;2023-02-05T11:53:20;9.80;;;2.60;;
1837;SDS011;918;50.796;6.772;2023-02-05T11:55:50;5.73;;;1.80;;
1837;SDS011;918;50.796;6.772;2023-02-05T11:58:24;6.00;;;2.20;;
1837;SDS011;918;50.796;6.772;2023-02-05T12:00:55;9.10;;;3.10;;
1837;SDS011;918;50.796;6.772;2023-02-05T12:03:26;7.33;;;2.53;;
1837;SDS011;918;50.796;6.772;2023-02-05T12:06:15;8.20;;;2.30;;
1837;SDS011;918;50.796;6.772;2023-02-05T12:08:52;7.53;;;2.10;;
1837;SDS011;918;50.796;6.772;2023-02-05T12:15:11;5.13;;;2.40;;
1837;SDS011;918;50.796;6.772;2023-02-05T12:33:39;5.90;;;3.60;;
1837;SDS011;918;50.796;6.772;2023-02-05T12:36:34;10.30;;;4.10;;
1837;SDS011;918;50.796;6.772;2023-02-05T12:39:13;12.13;;;3.93;;
1837;SDS011;918;50.796;6.772;2023-02-05T12:41:50;6.77;;;2.87;;
1837;SDS011;918;50.796;6.772;2023-02-05T12:47:35;12.43;;;3.43;;
1837;SDS011;918;50.796;6.772;2023-02-05T12:53:26;11.13;;;3.67;;
1837;SDS011;918;50.796;6.772;2023-02-05T12:56:34;7.53;;;3.20;;
1837;SDS011;918;50.796;6.772;2023-02-05T12:59:14;7.87;;;3.50;;
1837;SDS011;918;50.796;6.772;2023-02-05T13:01:49;6.07;;;3.73;;
1837;SDS011;918;50.796;6.772;2023-02-05T13:04:29;7.83;;;4.87;;
1837;SDS011;918;50.796;6.772;2023-02-05T13:07:03;7.63;;;4.70;;
1837;SDS011;918;50.796;6.772;2023-02-05T13:09:46;5.83;;;3.10;;
1837;SDS011;918;50.796;6.772;2023-02-05T13:12:17;9.97;;;3.30;;
1837;SDS011;918;50.796;6.772;2023-02-05T13:17:35;10.10;;;4.50;;
1837;SDS011;918;50.796;6.772;2023-02-05T13:20:06;11.33;;;4.93;;
1837;SDS011;918;50.796;6.772;2023-02-05T13:22:43;5.13;;;3.97;;
1837;SDS011;918;50.796;6.772;2023-02-05T13:25:37;9.67;;;4.20;;
1837;SDS011;918;50.796;6.772;2023-02-05T13:33:43;6.77;;;3.80;;
1837;SDS011;918;50.796;6.772;2023-02-05T13:46:59;7.17;;;4.03;;
1837;SDS011;918;50.796;6.772;2023-02-05T13:55:50;7.20;;;4.20;;
1837;SDS011;918;50.796;6.772;2023-02-05T13:58:29;6.03;;;5.37;;
1837;SDS011;918;50.796;6.772;2023-02-05T14:01:02;7.73;;;4.80;;
1837;SDS011;918;50.796;6.772;2023-02-05T14:03:55;5.27;;;4.80;;
1837;SDS011;918;50.796;6.772;2023-02-05T14:06:45;10.57;;;4.30;;
1837;SDS011;918;50.796;6.772;2023-02-05T14:09:34;5.43;;;4.03;;
1837;SDS011;918;50.796;6.772;2023-02-05T14:12:03;7.43;;;3.40;;
1837;SDS011;918;50.796;6.772;2023-02-05T14:19:53;3.80;;;2.50;;
1837;SDS011;918;50.796;6.772;2023-02-05T14:22:33;4.10;;;1.93;;
1837;SDS011;918;50.796;6.772;2023-02-05T14:27:59;3.67;;;1.70;;
1837;SDS011;918;50.796;6.772;2023-02-05T14:38:55;5.07;;;1.73;;
1837;SDS011;918;50.796;6.772;2023-02-05T14:41:22;4.47;;;2.07;;
1837;SDS011;918;50.796;6.772;2023-02-05T14:43:53;3.73;;;1.73;;
1837;SDS011;918;50.796;6.772;2023-02-05T14:46:24;4.70;;;2.00;;
1837;SDS011;918;50.796;6.772;2023-02-05T14:48:55;3.57;;;2.00;;
1837;SDS011;918;50.796;6.772;2023-02-05T14:56:30;4.30;;;3.97;;
1837;SDS011;918;50.796;6.772;2023-02-05T14:59:04;6.03;;;1.90;;
1837;SDS011;918;50.796;6.772;2023-02-05T15:01:41;2.10;;;1.50;;
1837;SDS011;918;50.796;6.772;2023-02-05T15:04:15;3.40;;;2.00;;
1837;SDS011;918;50.796;6.772;2023-02-05T15:06:46;4.70;;;2.73;;
1837;SDS011;918;50.796;6.772;2023-02-05T15:09:15;5.50;;;2.37;;
1837;SDS011;918;50.796;6.772;2023-02-05T15:14:40;3.90;;;2.20;;
1837;SDS011;918;50.796;6.772;2023-02-05T15:19:50;5.27;;;2.33;;
1837;SDS011;918;50.796;6.772;2023-02-05T15:22:24;5.60;;;1.83;;
1837;SDS011;918;50.796;6.772;2023-02-05T15:24:51;5.50;;;2.33;;
1837;SDS011;918;50.796;6.772;2023-02-05T15:27:20;4.10;;;1.77;;
1837;SDS011;918;50.796;6.772;2023-02-05T15:29:47;4.77;;;1.80;;
1837;SDS011;918;50.796;6.772;2023-02-05T15:32:21;8.43;;;2.33;;
1837;SDS011;918;50.796;6.772;2023-02-05T15:34:51;7.00;;;2.70;;
1837;SDS011;918;50.796;6.772;2023-02-05T15:37:20;4.00;;;2.10;;
1837;SDS011;918;50.796;6.772;2023-02-05T15:42:20;5.43;;;2.57;;
1837;SDS011;918;50.796;6.772;2023-02-05T15:44:50;6.60;;;2.53;;
1837;SDS011;918;50.796;6.772;2023-02-05T15:47:22;9.70;;;2.60;;
1837;SDS011;918;50.796;6.772;2023-02-05T15:49:50;6.50;;;2.50;;
1837;SDS011;918;50.796;6.772;2023-02-05T15:52:18;9.03;;;2.37;;
1837;SDS011;918;50.796;6.772;2023-02-05T15:54:52;6.23;;;1.77;;
1837;SDS011;918;50.796;6.772;2023-02-05T15:57:23;6.10;;;3.13;;
1837;SDS011;918;50.796;6.772;2023-02-05T15:59:51;7.87;;;2.13;;
1837;SDS011;918;50.796;6.772;2023-02-05T16:02:21;4.93;;;2.77;;
1837;SDS011;918;50.796;6.772;2023-02-05T16:04:58;3.13;;;2.20;;
1837;SDS011;918;50.796;6.772;2023-02-05T16:07:28;4.13;;;2.10;;
1837;SDS011;918;50.796;6.772;2023-02-05T16:10:00;5.97;;;2.43;;
1837;SDS011;918;50.796;6.772;2023-02-05T16:12:25;5.40;;;2.00;;
1837;SDS011;918;50.796;6.772;2023-02-05T16:15:01;8.70;;;2.47;;
1837;SDS011;918;50.796;6.772;2023-02-05T16:17:47;5.13;;;2.70;;
1837;SDS011;918;50.796;6.772;2023-02-05T16:20:25;5.57;;;3.10;;
1837;SDS011;918;50.796;6.772;2023-02-05T16:22:57;4.93;;;2.50;;
1837;SDS011;918;50.796;6.772;2023-02-05T16:25:40;9.47;;;2.97;;
1837;SDS011;918;50.796;6.772;2023-02-05T16:28:18;6.20;;;3.00;;
1837;SDS011;918;50.796;6.772;2023-02-05T16:30:51;9.40;;;3.87;;
1837;SDS011;918;50.796;6.772;2023-02-05T16:33:29;5.67;;;2.80;;
1837;SDS011;918;50.796;6.772;2023-02-05T16:35:59;7.17;;;2.70;;
1837;SDS011;918;50.796;6.772;2023-02-05T16:38:26;6.57;;;2.77;;
1837;SDS011;918;50.796;6.772;2023-02-05T16:40:53;7.13;;;2.80;;
1837;SDS011;918;50.796;6.772;2023-02-05T16:43:25;7.77;;;3.00;;
1837;SDS011;918;50.796;6.772;2023-02-05T16:51:01;12.80;;;3.50;;
1837;SDS011;918;50.796;6.772;2023-02-05T16:53:30;10.60;;;3.70;;
1837;SDS011;918;50.796;6.772;2023-02-05T16:58:45;11.37;;;4.33;;
1837;SDS011;918;50.796;6.772;2023-02-05T17:01:16;11.53;;;3.50;;
1837;SDS011;918;50.796;6.772;2023-02-05T17:03:47;6.43;;;3.50;;
1837;SDS011;918;50.796;6.772;2023-02-05T17:06:14;8.57;;;5.00;;
1837;SDS011;918;50.796;6.772;2023-02-05T17:08:41;6.67;;;3.60;;
1837;SDS011;918;50.796;6.772;2023-02-05T17:11:30;8.03;;;4.07;;
1837;SDS011;918;50.796;6.772;2023-02-05T17:17:03;6.93;;;3.40;;
1837;SDS011;918;50.796;6.772;2023-02-05T17:19:40;5.23;;;3.47;;
1837;SDS011;918;50.796;6.772;2023-02-05T17:24:37;6.03;;;3.00;;
1837;SDS011;918;50.796;6.772;2023-02-05T17:27:02;11.73;;;4.13;;
1837;SDS011;918;50.796;6.772;2023-02-05T17:29:28;11.07;;;3.80;;
1837;SDS011;918;50.796;6.772;2023-02-05T17:31:53;8.60;;;3.83;;
1837;SDS011;918;50.796;6.772;2023-02-05T17:34:22;15.60;;;4.57;;
1837;SDS011;918;50.796;6.772;2023-02-05T17:36:47;9.80;;;3.00;;
1837;SDS011;918;50.796;6.772;2023-02-05T17:39:12;6.57;;;3.07;;
1837;SDS011;918;50.796;6.772;2023-02-05T17:41:39;8.37;;;3.90;;
1837;SDS011;918;50.796;6.772;2023-02-05T17:44:23;14.97;;;4.03;;
1837;SDS011;918;50.796;6.772;2023-02-05T17:46:48;9.60;;;4.47;;
1837;SDS011;918;50.796;6.772;2023-02-05T17:49:14;10.57;;;4.10;;
1837;SDS011;918;50.796;6.772;2023-02-05T17:51:39;5.77;;;3.50;;
1837;SDS011;918;50.796;6.772;2023-02-05T17:54:11;15.03;;;5.67;;
1837;SDS011;918;50.796;6.772;2023-02-05T17:56:37;9.97;;;4.13;;
1837;SDS011;918;50.796;6.772;2023-02-05T17:59:07;13.83;;;4.60;;
1837;SDS011;918;50.796;6.772;2023-02-05T18:01:35;15.07;;;5.53;;
1837;SDS011;918;50.796;6.772;2023-02-05T18:04:00;11.83;;;5.80;;